createdAt,value
2022-12-25T00:02:03.162Z,8.90
2022-12-25T00:04:30.949Z,9.73
2022-12-25T00:06:59.542Z,10.80
2022-12-25T00:09:27.348Z,9.70
2022-12-25T00:11:55.223Z,11.53
2022-12-25T00:14:23.002Z,14.07
2022-12-25T00:16:52.207Z,8.20
2022-12-25T00:19:20.198Z,8.90
2022-12-25T00:21:48.047Z,10.03
2022-12-25T00:24:15.808Z,10.17
2022-12-25T00:26:43.684Z,8.07
2022-12-25T00:29:13.798Z,11.23
2022-12-25T00:31:41.693Z,11.30
2022-12-25T00:34:10.902Z,10.33
2022-12-25T00:36:41.846Z,8.37
2022-12-25T00:39:10.462Z,8.57
2022-12-25T00:41:55.534Z,8.13
2022-12-25T00:44:23.281Z,6.77
2022-12-25T00:46:51.128Z,7.93
2022-12-25T00:49:22.655Z,8.60
2022-12-25T00:51:50.789Z,10.77
2022-12-25T00:54:19.117Z,11.03
2022-12-25T00:56:47.117Z,11.97
2022-12-25T00:59:15.319Z,8.97
2022-12-25T01:01:43.240Z,16.33
2022-12-25T01:04:11.972Z,9.10
2022-12-25T01:06:41.691Z,9.20
2022-12-25T01:09:27.773Z,10.53
2022-12-25T01:11:55.565Z,10.50
2022-12-25T01:14:23.361Z,9.83
2022-12-25T01:16:51.241Z,10.20
2022-12-25T01:19:19.002Z,8.87
2022-12-25T01:21:48.069Z,7.37
2022-12-25T01:24:15.999Z,10.47
2022-12-25T01:26:43.713Z,9.77
2022-12-25T01:29:11.417Z,11.03
2022-12-25T01:31:39.213Z,9.67
2022-12-25T01:34:07.035Z,9.80
2022-12-25T01:36:34.845Z,7.50
2022-12-25T01:39:04.708Z,6.03
2022-12-25T01:41:32.459Z,7.83
2022-12-25T01:44:04.624Z,11.53
2022-12-25T01:46:33.664Z,8.00
2022-12-25T01:49:04.475Z,8.40
2022-12-25T01:51:37.172Z,7.43
2022-12-25T01:54:10.517Z,7.50
2022-12-25T01:56:41.461Z,9.80
2022-12-25T01:59:10.045Z,9.60
2022-12-25T02:01:37.991Z,9.03
2022-12-25T02:04:10.037Z,8.40
2022-12-25T02:06:37.736Z,8.70
2022-12-25T02:09:06.992Z,7.83
2022-12-25T02:11:52.410Z,9.43
2022-12-25T02:14:20.251Z,9.53
2022-12-25T02:16:57.941Z,9.80
2022-12-25T02:19:38.422Z,9.63
2022-12-25T02:22:14.529Z,8.57
2022-12-25T02:25:11.704Z,6.63
2022-12-25T02:28:07.289Z,12.77
2022-12-25T02:30:40.239Z,13.17
2022-12-25T02:33:31.984Z,11.00
2022-12-25T02:36:06.757Z,9.80
2022-12-25T02:38:38.993Z,13.13
2022-12-25T02:41:10.758Z,14.77
2022-12-25T02:44:02.031Z,12.93
2022-12-25T02:46:50.154Z,12.97
2022-12-25T02:49:39.836Z,17.03
2022-12-25T02:52:29.853Z,12.30
2022-12-25T02:55:21.014Z,12.97
2022-12-25T02:58:10.663Z,13.87
2022-12-25T03:01:01.105Z,13.57
2022-12-25T03:03:50.431Z,11.80
2022-12-25T03:06:37.782Z,14.67
2022-12-25T03:09:25.935Z,10.63
2022-12-25T03:11:59.398Z,14.47
2022-12-25T03:14:44.783Z,11.43
2022-12-25T03:17:14.303Z,12.27
2022-12-25T03:19:59.818Z,10.90
2022-12-25T03:22:48.510Z,13.93
2022-12-25T03:25:35.145Z,13.37
2022-12-25T03:28:03.310Z,11.33
2022-12-25T03:30:56.036Z,11.73
2022-12-25T03:33:45.075Z,15.23
2022-12-25T03:36:21.750Z,16.50
2022-12-25T03:39:17.925Z,11.17
2022-12-25T03:42:07.630Z,12.67
2022-12-25T03:45:00.813Z,12.80
2022-12-25T03:47:58.379Z,13.13
2022-12-25T03:50:51.742Z,11.23
2022-12-25T03:53:41.901Z,11.50
2022-12-25T03:56:28.372Z,17.13
2022-12-25T03:59:22.925Z,14.70
2022-12-25T04:02:09.480Z,13.30
2022-12-25T04:04:55.011Z,11.77
2022-12-25T04:07:41.363Z,11.10
2022-12-25T04:10:28.040Z,15.13
2022-12-25T04:13:12.713Z,12.80
2022-12-25T04:15:57.839Z,10.40
2022-12-25T04:18:43.312Z,12.57
2022-12-25T04:21:28.457Z,11.60
2022-12-25T04:24:20.069Z,10.87
2022-12-25T04:27:05.379Z,11.93
2022-12-25T04:29:50.531Z,8.03
2022-12-25T04:32:35.982Z,8.07
2022-12-25T04:35:23.729Z,8.80
2022-12-25T04:37:51.639Z,8.13
2022-12-25T04:40:20.914Z,7.83
2022-12-25T04:42:50.490Z,8.50
2022-12-25T04:45:18.833Z,6.87
2022-12-25T04:47:46.598Z,4.53
2022-12-25T04:50:14.457Z,8.60
2022-12-25T04:52:42.843Z,8.37
2022-12-25T04:55:12.657Z,6.70
2022-12-25T04:57:41.756Z,5.17
2022-12-25T05:00:10.705Z,4.37
2022-12-25T05:02:38.730Z,5.57
2022-12-25T05:05:06.999Z,7.43
2022-12-25T05:07:34.950Z,5.80
2022-12-25T05:10:02.793Z,5.57
2022-12-25T05:12:30.542Z,5.10
2022-12-25T05:14:59.769Z,4.47
2022-12-25T05:17:27.453Z,5.80
2022-12-25T05:19:55.161Z,7.20
2022-12-25T05:22:22.924Z,7.50
2022-12-25T05:24:50.755Z,5.87
2022-12-25T05:27:18.512Z,6.70
2022-12-25T05:29:46.248Z,5.63
2022-12-25T05:32:15.421Z,6.47
2022-12-25T05:34:43.225Z,6.60
2022-12-25T05:37:10.974Z,7.30
2022-12-25T05:39:38.815Z,7.03
2022-12-25T05:42:06.607Z,8.83
2022-12-25T05:44:34.345Z,6.47
2022-12-25T05:47:02.207Z,10.27
2022-12-25T05:49:31.621Z,8.57
2022-12-25T05:51:59.513Z,10.83
2022-12-25T05:54:27.285Z,10.70
2022-12-25T05:56:55.046Z,9.03
2022-12-25T05:59:22.859Z,10.90
2022-12-25T06:01:50.724Z,7.80
2022-12-25T06:04:18.685Z,7.97
2022-12-25T06:06:47.866Z,10.77
2022-12-25T06:09:15.841Z,15.30
2022-12-25T06:11:43.677Z,12.00
2022-12-25T06:14:12.955Z,10.63
2022-12-25T06:16:41.026Z,10.23
2022-12-25T06:19:08.864Z,10.90
2022-12-25T06:21:36.739Z,11.33
2022-12-25T06:24:06.532Z,11.57
2022-12-25T06:26:34.310Z,12.77
2022-12-25T06:29:02.143Z,12.57
2022-12-25T06:31:29.931Z,11.40
2022-12-25T06:33:58.849Z,11.17
2022-12-25T06:36:29.264Z,11.93
2022-12-25T06:38:57.885Z,12.90
2022-12-25T06:41:28.761Z,12.17
2022-12-25T06:43:58.192Z,9.07
2022-12-25T06:46:28.111Z,11.03
2022-12-25T06:48:56.263Z,10.77
2022-12-25T06:51:25.652Z,11.20
2022-12-25T06:53:54.977Z,7.83
2022-12-25T06:56:24.889Z,7.23
2022-12-25T06:58:56.381Z,8.23
2022-12-25T07:01:26.536Z,9.60
2022-12-25T07:03:57.742Z,11.90
2022-12-25T07:06:25.765Z,11.23
2022-12-25T07:08:53.752Z,10.07
2022-12-25T07:11:22.500Z,12.33
2022-12-25T07:13:50.790Z,11.77
2022-12-25T07:16:20.298Z,11.17
2022-12-25T07:18:48.357Z,9.77
2022-12-25T07:21:17.906Z,11.00
2022-12-25T07:23:47.201Z,10.47
2022-12-25T07:26:15.774Z,11.77
2022-12-25T07:28:43.531Z,10.23
2022-12-25T07:31:13.634Z,9.70
2022-12-25T07:33:43.665Z,10.83
2022-12-25T07:36:12.878Z,13.03
2022-12-25T07:38:41.369Z,12.57
2022-12-25T07:41:09.529Z,10.53
2022-12-25T07:43:37.620Z,10.23
2022-12-25T07:46:06.008Z,13.40
2022-12-25T07:48:34.327Z,11.80
2022-12-25T07:51:06.472Z,11.33
2022-12-25T07:53:35.162Z,12.47
2022-12-25T07:56:06.055Z,10.00
2022-12-25T07:58:34.358Z,11.30
2022-12-25T08:01:05.393Z,10.33
2022-12-25T08:03:33.445Z,10.97
2022-12-25T08:06:05.511Z,9.60
2022-12-25T08:08:33.537Z,11.07
2022-12-25T08:11:01.419Z,9.77
2022-12-25T08:13:31.980Z,17.17
2022-12-25T08:16:00.650Z,11.63
2022-12-25T08:18:30.235Z,14.63
2022-12-25T08:20:58.559Z,14.37
2022-12-25T08:23:27.805Z,13.83
2022-12-25T08:26:04.562Z,12.97
2022-12-25T08:28:34.022Z,13.83
2022-12-25T08:31:07.459Z,14.03
2022-12-25T08:33:35.296Z,10.77
2022-12-25T08:36:04.127Z,8.67
2022-12-25T08:38:33.301Z,10.13
2022-12-25T08:41:01.141Z,7.70
2022-12-25T08:43:28.910Z,5.10
2022-12-25T08:45:56.742Z,5.63
2022-12-25T08:48:24.769Z,5.57
2022-12-25T08:50:53.855Z,4.13
2022-12-25T08:53:22.484Z,4.53
2022-12-25T08:55:58.266Z,3.33
2022-12-25T08:58:26.716Z,3.10
2022-12-25T09:00:54.952Z,3.13
2022-12-25T09:03:23.579Z,3.90
2022-12-25T09:05:51.546Z,3.40
2022-12-25T09:08:20.202Z,5.33
2022-12-25T09:10:47.961Z,5.27
2022-12-25T09:13:17.194Z,6.03
2022-12-25T09:15:45.023Z,6.97
2022-12-25T09:18:12.983Z,5.17
2022-12-25T09:20:40.808Z,7.00
2022-12-25T09:23:13.537Z,5.80
2022-12-25T09:25:41.554Z,6.20
2022-12-25T09:28:09.335Z,6.20
2022-12-25T09:30:38.567Z,9.57
2022-12-25T09:33:07.113Z,6.17
2022-12-25T09:35:35.142Z,5.00
2022-12-25T09:38:03.069Z,5.20
2022-12-25T09:40:33.161Z,5.47
2022-12-25T09:43:02.719Z,5.77
2022-12-25T09:45:36.322Z,6.73
2022-12-25T09:48:06.256Z,6.90
2022-12-25T09:50:42.575Z,5.43
2022-12-25T09:53:16.068Z,6.60
2022-12-25T09:55:58.060Z,6.70
2022-12-25T09:58:25.991Z,6.67
2022-12-25T10:01:01.769Z,7.27
2022-12-25T10:03:49.514Z,6.33
2022-12-25T10:06:22.003Z,7.60
2022-12-25T10:09:13.857Z,5.30
2022-12-25T10:11:59.082Z,6.00
2022-12-25T10:14:36.156Z,8.67
2022-12-25T10:17:18.406Z,5.47
2022-12-25T10:19:55.693Z,5.30
2022-12-25T10:22:31.298Z,4.00
2022-12-25T10:25:01.806Z,5.13
2022-12-25T10:27:33.844Z,5.07
2022-12-25T10:30:02.994Z,4.50
2022-12-25T10:32:30.906Z,6.30
2022-12-25T10:35:00.120Z,4.80
2022-12-25T10:37:27.926Z,6.30
2022-12-25T10:39:57.346Z,25.40
2022-12-25T10:42:34.924Z,6.00
2022-12-25T10:45:05.730Z,6.50
2022-12-25T10:47:38.031Z,10.67
2022-12-25T10:50:13.177Z,8.77
2022-12-25T10:52:56.214Z,6.30
2022-12-25T10:55:28.757Z,7.40
2022-12-25T10:57:58.633Z,5.10
2022-12-25T11:00:29.199Z,5.07
2022-12-25T11:02:57.713Z,4.33
2022-12-25T11:05:29.798Z,6.23
2022-12-25T11:08:00.178Z,5.13
2022-12-25T11:10:31.775Z,4.77
2022-12-25T11:13:01.015Z,5.43
2022-12-25T11:15:35.792Z,7.37
2022-12-25T11:18:03.716Z,4.77
2022-12-25T11:20:33.278Z,5.93
2022-12-25T11:23:01.453Z,5.13
2022-12-25T11:25:29.556Z,4.77
2022-12-25T11:27:59.446Z,8.00
2022-12-25T11:30:28.133Z,4.47
2022-12-25T11:32:59.455Z,5.30
2022-12-25T11:35:38.469Z,5.83
2022-12-25T11:38:06.162Z,5.47
2022-12-25T11:40:40.819Z,6.50
2022-12-25T11:43:15.777Z,6.70
2022-12-25T11:45:48.756Z,6.87
2022-12-25T11:48:20.612Z,5.90
2022-12-25T11:50:54.524Z,5.17
2022-12-25T11:53:29.713Z,5.23
2022-12-25T11:56:03.052Z,11.20
2022-12-25T11:58:37.024Z,6.40
2022-12-25T12:01:16.700Z,6.10
2022-12-25T12:03:45.687Z,5.90
2022-12-25T12:06:22.175Z,6.57
2022-12-25T12:08:55.603Z,9.17
2022-12-25T12:11:31.295Z,6.10
2022-12-25T12:14:08.315Z,5.73
2022-12-25T12:16:36.613Z,5.53
2022-12-25T12:19:12.691Z,5.97
2022-12-25T12:21:44.159Z,5.57
2022-12-25T12:24:17.031Z,5.93
2022-12-25T12:26:47.139Z,6.43
2022-12-25T12:29:26.139Z,8.30
2022-12-25T12:31:56.277Z,6.70
2022-12-25T12:34:27.951Z,8.50
2022-12-25T12:37:02.703Z,6.63
2022-12-25T12:39:36.491Z,6.73
2022-12-25T12:42:13.922Z,7.63
2022-12-25T12:44:42.548Z,8.23
2022-12-25T12:47:29.623Z,7.83
2022-12-25T12:49:59.751Z,6.23
2022-12-25T12:52:34.908Z,9.83
2022-12-25T12:55:05.521Z,8.43
2022-12-25T12:57:39.284Z,6.37
2022-12-25T13:00:10.245Z,7.10
2022-12-25T13:03:29.672Z,6.93
2022-12-25T13:06:01.964Z,8.10
2022-12-25T13:08:49.118Z,9.37
2022-12-25T13:11:21.214Z,5.97
2022-12-25T13:13:51.466Z,5.93
2022-12-25T13:16:26.251Z,7.70
2022-12-25T13:18:56.717Z,7.07
2022-12-25T13:21:26.413Z,7.17
2022-12-25T13:24:00.768Z,6.40
2022-12-25T13:26:29.530Z,7.60
2022-12-25T13:28:57.762Z,7.67
2022-12-25T13:31:27.018Z,9.30
2022-12-25T13:33:59.279Z,8.43
2022-12-25T13:36:28.554Z,8.10
2022-12-25T13:39:00.465Z,7.50
2022-12-25T13:41:53.248Z,8.77
2022-12-25T13:44:25.209Z,8.30
2022-12-25T13:46:53.301Z,9.33
2022-12-25T13:49:23.265Z,8.50
2022-12-25T13:51:52.006Z,9.63
2022-12-25T13:54:21.198Z,8.63
2022-12-25T13:56:51.828Z,8.50
2022-12-25T13:59:22.631Z,9.67
2022-12-25T14:01:52.036Z,9.93
2022-12-25T14:04:22.921Z,11.23
2022-12-25T14:06:51.498Z,10.10
2022-12-25T14:09:21.209Z,10.17
2022-12-25T14:11:52.289Z,8.87
2022-12-25T14:14:23.096Z,8.77
2022-12-25T14:16:54.360Z,8.70
2022-12-25T14:19:27.197Z,8.10
2022-12-25T14:21:59.382Z,8.17
2022-12-25T14:24:31.033Z,10.20
2022-12-25T14:27:01.256Z,9.60
2022-12-25T14:29:36.695Z,8.27
2022-12-25T14:32:07.204Z,10.43
2022-12-25T14:34:35.639Z,9.47
2022-12-25T14:37:05.204Z,10.83
2022-12-25T14:39:37.336Z,10.17
2022-12-25T14:42:16.355Z,8.90
2022-12-25T14:44:44.495Z,11.07
2022-12-25T14:47:18.852Z,9.77
2022-12-25T14:49:47.780Z,10.10
2022-12-25T14:52:20.405Z,10.80
2022-12-25T14:54:52.222Z,11.20
2022-12-25T14:57:27.035Z,11.27
2022-12-25T15:00:05.317Z,9.87
2022-12-25T15:02:41.681Z,9.30
2022-12-25T15:05:26.060Z,9.93
2022-12-25T15:08:03.000Z,8.80
2022-12-25T15:11:02.555Z,8.90
2022-12-25T15:13:20.066Z,7.90
2022-12-25T15:15:54.568Z,9.47
2022-12-25T15:18:27.163Z,11.00
2022-12-25T15:20:56.263Z,8.90
2022-12-25T15:23:25.383Z,10.10
2022-12-25T15:25:54.491Z,11.57
2022-12-25T15:28:22.265Z,12.83
2022-12-25T15:30:50.747Z,22.00
2022-12-25T15:33:20.035Z,22.50
2022-12-25T15:35:48.894Z,16.23
2022-12-25T15:38:16.704Z,11.23
2022-12-25T15:40:44.558Z,11.83
2022-12-25T15:43:39.523Z,10.17
2022-12-25T15:46:03.324Z,12.13
2022-12-25T15:48:31.301Z,10.77
2022-12-25T15:50:59.151Z,13.70
2022-12-25T15:53:26.944Z,12.13
2022-12-25T15:55:54.846Z,15.13
2022-12-25T15:58:23.984Z,12.83
2022-12-25T16:00:51.745Z,12.63
2022-12-25T16:03:19.489Z,10.00
2022-12-25T16:05:47.309Z,13.23
2022-12-25T16:08:15.105Z,11.77
2022-12-25T16:10:42.923Z,10.67
2022-12-25T16:13:10.730Z,9.47
2022-12-25T16:15:39.857Z,9.97
2022-12-25T16:18:07.752Z,10.67
2022-12-25T16:20:36.610Z,10.83
2022-12-25T16:23:04.336Z,11.10
2022-12-25T16:25:32.057Z,10.83
2022-12-25T16:27:59.774Z,13.97
2022-12-25T16:30:27.470Z,13.37
2022-12-25T16:32:56.664Z,12.23
2022-12-25T16:35:24.422Z,9.70
2022-12-25T16:37:52.485Z,9.70
2022-12-25T16:40:20.476Z,10.50
2022-12-25T16:42:48.602Z,9.07
2022-12-25T16:45:16.402Z,8.73
2022-12-25T16:47:44.233Z,9.43
2022-12-25T16:50:13.804Z,10.73
2022-12-25T16:52:41.566Z,12.83
2022-12-25T16:55:10.699Z,10.57
2022-12-25T16:57:38.567Z,9.90
2022-12-25T17:00:08.682Z,10.80
2022-12-25T17:02:36.552Z,12.20
2022-12-25T17:05:04.483Z,15.07
2022-12-25T17:07:33.538Z,15.00
2022-12-25T17:10:01.328Z,15.03
2022-12-25T17:12:29.428Z,16.17
2022-12-25T17:14:57.141Z,11.97
2022-12-25T17:17:24.947Z,11.93
2022-12-25T17:19:52.766Z,12.37
2022-12-25T17:22:20.544Z,11.37
2022-12-25T17:24:49.675Z,12.67
2022-12-25T17:27:17.813Z,13.00
2022-12-25T17:29:47.197Z,13.00
2022-12-25T17:32:15.483Z,14.63
2022-12-25T17:34:43.216Z,18.53
2022-12-25T17:37:10.972Z,16.80
2022-12-25T17:39:39.577Z,19.97
2022-12-25T17:42:08.742Z,21.37
2022-12-25T17:44:36.409Z,18.77
2022-12-25T17:47:04.299Z,17.00
2022-12-25T17:49:32.117Z,16.57
2022-12-25T17:51:59.832Z,17.30
2022-12-25T17:54:27.754Z,32.77
2022-12-25T17:56:55.448Z,25.50
2022-12-25T17:59:29.443Z,25.13
2022-12-25T18:01:57.292Z,21.60
2022-12-25T18:04:25.336Z,22.27
2022-12-25T18:06:53.175Z,20.07
2022-12-25T18:09:20.965Z,18.67
2022-12-25T18:11:48.713Z,19.97
2022-12-25T18:14:17.519Z,20.50
2022-12-25T18:16:47.073Z,17.73
2022-12-25T18:19:17.569Z,17.90
2022-12-25T18:21:45.498Z,20.87
2022-12-25T18:24:13.351Z,23.40
2022-12-25T18:26:41.080Z,27.53
2022-12-25T18:29:08.887Z,33.27
2022-12-25T18:31:37.116Z,25.93
2022-12-25T18:34:06.499Z,23.80
2022-12-25T18:36:34.198Z,17.93
2022-12-25T18:39:01.983Z,16.80
2022-12-25T18:41:30.711Z,17.97
2022-12-25T18:44:00.689Z,14.57
2022-12-25T18:46:29.424Z,19.07
2022-12-25T18:48:58.222Z,18.30
2022-12-25T18:51:34.739Z,16.83
2022-12-25T18:54:04.722Z,16.03
2022-12-25T18:56:32.706Z,22.63
2022-12-25T18:59:00.944Z,18.30
2022-12-25T19:01:28.801Z,17.33
2022-12-25T19:04:04.543Z,19.47
2022-12-25T19:06:34.846Z,21.47
2022-12-25T19:09:08.719Z,20.93
2022-12-25T19:11:40.445Z,17.93
2022-12-25T19:14:13.730Z,20.50
2022-12-25T19:16:41.628Z,16.43
2022-12-25T19:19:09.425Z,18.73
2022-12-25T19:21:39.474Z,20.73
2022-12-25T19:24:07.773Z,17.13
2022-12-25T19:26:35.928Z,21.73
2022-12-25T19:29:03.903Z,23.47
2022-12-25T19:31:31.830Z,18.90
2022-12-25T19:33:59.658Z,17.43
2022-12-25T19:36:27.488Z,16.77
2022-12-25T19:38:56.710Z,18.93
2022-12-25T19:41:24.587Z,21.30
2022-12-25T19:43:52.474Z,16.27
2022-12-25T19:46:23.108Z,14.53
2022-12-25T19:48:51.325Z,17.17
2022-12-25T19:51:22.196Z,16.67
2022-12-25T19:53:50.353Z,16.77
2022-12-25T19:56:19.872Z,18.90
2022-12-25T19:58:48.129Z,18.60
2022-12-25T20:01:18.185Z,18.97
2022-12-25T20:03:46.728Z,19.23
2022-12-25T20:06:18.879Z,17.50
2022-12-25T20:08:47.005Z,22.77
2022-12-25T20:11:14.926Z,19.93
2022-12-25T20:13:44.609Z,20.27
2022-12-25T20:16:12.751Z,21.53
2022-12-25T20:18:41.205Z,21.07
2022-12-25T20:21:12.118Z,23.27
2022-12-25T20:23:39.887Z,18.90
2022-12-25T20:26:08.059Z,19.60
2022-12-25T20:28:37.719Z,17.10
2022-12-25T20:31:11.681Z,17.33
2022-12-25T20:33:39.454Z,16.43
2022-12-25T20:36:08.171Z,16.17
2022-12-25T20:38:36.990Z,15.87
2022-12-25T20:43:54.651Z,16.27
2022-12-25T20:46:24.737Z,13.73
2022-12-25T20:48:53.405Z,11.67
2022-12-25T20:51:23.223Z,14.53
2022-12-25T20:53:51.582Z,16.80
2022-12-25T20:56:21.844Z,12.83
2022-12-25T20:58:54.246Z,14.87
2022-12-25T21:01:22.260Z,11.63
2022-12-25T21:03:52.076Z,12.50
2022-12-25T21:06:20.164Z,11.27
2022-12-25T21:08:48.049Z,12.57
2022-12-25T21:11:17.578Z,11.63
2022-12-25T21:13:46.734Z,15.13
2022-12-25T21:16:17.163Z,9.80
2022-12-25T21:18:45.062Z,11.73
2022-12-25T21:21:14.275Z,11.00
2022-12-25T21:23:42.180Z,11.40
2022-12-25T21:26:11.721Z,9.37
2022-12-25T21:28:39.554Z,8.87
2022-12-25T21:31:08.314Z,9.30
2022-12-25T21:33:54.405Z,11.10
2022-12-25T21:36:27.188Z,9.90
2022-12-25T21:38:58.319Z,11.03
2022-12-25T21:41:27.130Z,12.63
2022-12-25T21:43:55.797Z,10.43
2022-12-25T21:46:24.083Z,10.97
2022-12-25T21:48:51.914Z,9.93
2022-12-25T21:51:38.954Z,11.53
2022-12-25T21:54:08.621Z,9.37
2022-12-25T21:56:43.420Z,10.23
2022-12-25T21:59:15.294Z,9.97
2022-12-25T22:01:44.580Z,11.33
2022-12-25T22:04:14.202Z,12.43
2022-12-25T22:06:59.581Z,10.53
2022-12-25T22:09:29.166Z,13.83
2022-12-25T22:12:14.869Z,10.23
2022-12-25T22:14:54.754Z,9.07
2022-12-25T22:17:43.601Z,9.77
2022-12-25T22:20:13.927Z,9.93
2022-12-25T22:22:41.634Z,10.07
2022-12-25T22:25:12.570Z,9.23
2022-12-25T22:27:41.696Z,11.00
2022-12-25T22:30:11.842Z,11.20
2022-12-25T22:32:39.647Z,11.90
2022-12-25T22:35:08.103Z,10.60
2022-12-25T22:37:36.930Z,11.77
2022-12-25T22:40:06.408Z,11.10
2022-12-25T22:42:35.607Z,9.83
2022-12-25T22:45:03.699Z,11.33
2022-12-25T22:47:31.551Z,11.80
2022-12-25T22:49:59.452Z,11.97
2022-12-25T22:52:27.213Z,11.40
2022-12-25T22:54:54.975Z,10.87
2022-12-25T22:57:22.791Z,10.80
2022-12-25T22:59:53.816Z,10.63
2022-12-25T23:02:21.981Z,9.57
2022-12-25T23:04:49.863Z,11.40
2022-12-25T23:07:17.942Z,10.30
2022-12-25T23:09:46.085Z,12.37
2022-12-25T23:12:27.770Z,9.83
2022-12-25T23:14:56.996Z,9.03
2022-12-25T23:17:42.154Z,11.10
2022-12-25T23:20:28.242Z,8.47
2022-12-25T23:23:13.333Z,9.70
2022-12-25T23:25:58.516Z,9.60
2022-12-25T23:28:40.182Z,10.23
2022-12-25T23:31:09.655Z,10.63
2022-12-25T23:33:37.403Z,11.43
2022-12-25T23:36:06.377Z,11.77
2022-12-25T23:38:34.146Z,8.57
2022-12-25T23:41:01.933Z,11.37
2022-12-25T23:43:29.746Z,12.47
2022-12-25T23:45:57.460Z,10.67
2022-12-25T23:48:26.585Z,13.33
2022-12-25T23:50:54.455Z,12.90
2022-12-25T23:53:22.235Z,15.53
2022-12-25T23:55:55.603Z,13.23
2022-12-25T23:58:23.691Z,13.97
